Accueil
METAR-TAF:

METAR-TAF

Aéroports :

Aérodrome de Touho

Touho, Nouvelle-Calédonie

latitude: 20-47-25S, longitude: 165-15-34E, altitude: 3 m

METAR: absent

Heure: 10:02 (23:02 UTC)

Prévision

Le bulletin a été fait il y a 6 heures et 2 minutes, à 17:00 UTC
Prévision valable du 19 à 18 UTC au 20 à 18 UTC
Vent 15 kt de sud-est avec des rafales jusqu'à 25 kt
Visibilité 10 km ou plus
Nuages fragmentés à une hauteur de 1800 ft
Nuages fragmentés à une hauteur de 2500 ft
Probabilité 40% :
Temporairement
du 19 à 18 UTC au 20 à 18 UTC
Visibilité: 4000 m
Nuages fragmentés à une hauteur de 1200 ft
Nuages épars à une hauteur de 2000 ft, Cumulus congestus.
averses de pluie

TAF: NWWU 191700Z 1918/2018 13015G25KT 9999 BKN018 BKN025 PROB40 TEMPO 1918/2018 4000 SHRA BKN012 SCT020TCU

Observations et prévisions météorologiques de plus de 4000 aéroports (messages METAR et TAF).

Les stations disponibles sont représentées par des disques jaunes et rouges sur la carte.

Passer la souris dessus pour voir le nom de la station.

Cliquer dessus pour voir les observations et prévisions météorologiques.

Pour changer de carte: cliquez sur les boutons verts avec une croix noire pour zoomer, sur le bouton vert avec un tiret pour effectuer un zoom arrière, ou sur les flèches vertes pour les cartes adjacentes.


METAR-TAF: